createdAt,value
2023-09-21T00:01:57.618Z,86.61
2023-09-21T00:04:33.753Z,86.79
2023-09-21T00:07:07.077Z,86.86
2023-09-21T00:09:40.026Z,86.87
2023-09-21T00:12:12.267Z,86.89
2023-09-21T00:14:44.500Z,86.97
2023-09-21T00:17:19.008Z,86.83
2023-09-21T00:19:51.575Z,86.66
2023-09-21T00:22:23.788Z,87.11
2023-09-21T00:24:56.136Z,87.38
2023-09-21T00:27:30.745Z,87.03
2023-09-21T00:30:05.984Z,87.02
2023-09-21T00:32:42.976Z,87.10
2023-09-21T00:35:17.813Z,87.32
2023-09-21T00:37:54.946Z,87.52
2023-09-21T00:40:29.508Z,87.55
2023-09-21T00:43:07.612Z,87.21
2023-09-21T00:45:47.890Z,87.64
2023-09-21T00:48:25.506Z,87.77
2023-09-21T00:51:00.781Z,87.82
2023-09-21T00:53:34.407Z,87.91
2023-09-21T00:56:19.154Z,88.36
2023-09-21T00:58:55.278Z,88.19
2023-09-21T01:01:30.801Z,88.48
2023-09-21T01:04:08.006Z,88.78
2023-09-21T01:06:43.228Z,88.54
2023-09-21T01:09:18.994Z,88.63
2023-09-21T01:11:54.900Z,88.63
2023-09-21T01:14:30.279Z,88.83
2023-09-21T01:17:03.127Z,88.82
2023-09-21T01:19:37.828Z,88.81
2023-09-21T01:22:13.743Z,88.80
2023-09-21T01:24:47.947Z,88.79
2023-09-21T01:27:21.914Z,89.08
2023-09-21T01:29:53.735Z,88.13
2023-09-21T01:35:14.290Z,89.00
2023-09-21T01:37:47.642Z,88.90
2023-09-21T01:40:21.332Z,88.72
2023-09-21T01:42:53.606Z,88.71
2023-09-21T01:45:29.417Z,88.57
2023-09-21T01:48:02.678Z,88.74
2023-09-21T01:50:35.137Z,88.57
2023-09-21T01:53:09.539Z,88.48
2023-09-21T01:55:44.704Z,88.52
2023-09-21T01:58:17.968Z,88.22
2023-09-21T02:00:52.006Z,88.61
2023-09-21T02:03:35.488Z,88.93
2023-09-21T02:06:08.111Z,89.08
2023-09-21T02:08:40.755Z,89.01
2023-09-21T02:11:13.298Z,89.05
2023-09-21T02:13:46.062Z,89.27
2023-09-21T02:16:21.725Z,89.03
2023-09-21T02:18:53.982Z,89.07
2023-09-21T02:21:26.782Z,89.17
2023-09-21T02:24:01.717Z,88.97
2023-09-21T02:26:34.130Z,88.91
2023-09-21T02:29:07.890Z,88.96
2023-09-21T02:31:47.028Z,89.00
2023-09-21T02:34:19.282Z,89.07
2023-09-21T02:36:54.224Z,89.09
2023-09-21T02:39:27.351Z,89.20
2023-09-21T02:42:02.675Z,89.38
2023-09-21T02:44:37.378Z,89.35
2023-09-21T02:47:10.968Z,89.58
2023-09-21T02:49:43.452Z,89.59
2023-09-21T02:52:16.708Z,89.56
2023-09-21T02:54:48.983Z,89.66
2023-09-21T02:57:25.533Z,89.76
2023-09-21T03:00:08.081Z,89.70
2023-09-21T03:02:40.585Z,89.79
2023-09-21T03:05:15.170Z,89.80
2023-09-21T03:07:49.523Z,89.89
2023-09-21T03:10:22.302Z,89.78
2023-09-21T03:13:02.169Z,89.91
2023-09-21T03:15:36.097Z,89.84
2023-09-21T03:18:08.966Z,89.88
2023-09-21T03:20:45.520Z,89.92
2023-09-21T03:23:18.498Z,89.93
2023-09-21T03:25:52.781Z,89.94
2023-09-21T03:28:24.682Z,89.63
2023-09-21T03:30:58.798Z,90.04
2023-09-21T03:33:39.896Z,89.99
2023-09-21T03:36:17.962Z,89.97
2023-09-21T03:38:50.728Z,90.23
2023-09-21T03:41:23.107Z,90.19
2023-09-21T03:43:56.635Z,90.17
2023-09-21T03:46:38.044Z,90.08
2023-09-21T03:49:14.003Z,89.69
2023-09-21T03:51:48.927Z,90.14
2023-09-21T03:54:23.038Z,90.24
2023-09-21T03:56:55.431Z,90.36
2023-09-21T03:59:29.006Z,90.18
2023-09-21T04:02:01.893Z,90.33
2023-09-21T04:04:35.749Z,90.33
2023-09-21T04:07:14.238Z,90.39
2023-09-21T04:09:47.473Z,90.47
2023-09-21T04:12:19.943Z,90.60
2023-09-21T04:14:53.756Z,90.68
2023-09-21T04:17:30.613Z,90.71
2023-09-21T04:20:13.740Z,90.79
2023-09-21T04:22:48.231Z,90.87
2023-09-21T04:25:21.368Z,90.75
2023-09-21T04:27:56.503Z,90.95
2023-09-21T04:30:30.978Z,90.81
2023-09-21T04:33:08.280Z,91.03
2023-09-21T04:35:42.971Z,91.04
2023-09-21T04:38:15.368Z,91.08
2023-09-21T04:40:52.446Z,90.88
2023-09-21T04:43:24.974Z,91.08
2023-09-21T04:45:57.654Z,91.11
2023-09-21T04:48:35.095Z,90.92
2023-09-21T04:51:11.736Z,91.15
2023-09-21T04:53:44.847Z,91.20
2023-09-21T04:56:20.179Z,91.25
2023-09-21T04:58:53.070Z,91.10
2023-09-21T05:01:26.568Z,91.09
2023-09-21T05:03:58.078Z,90.84
2023-09-21T05:06:31.865Z,90.90
2023-09-21T05:09:05.181Z,91.08
2023-09-21T05:11:41.298Z,91.03
2023-09-21T05:14:14.719Z,91.26
2023-09-21T05:16:47.173Z,91.13
2023-09-21T05:19:20.424Z,90.97
2023-09-21T05:21:57.928Z,91.04
2023-09-21T05:24:34.308Z,91.06
2023-09-21T05:27:09.752Z,91.19
2023-09-21T05:29:43.944Z,91.25
2023-09-21T05:32:19.369Z,91.02
2023-09-21T05:34:55.248Z,90.57
2023-09-21T05:37:32.076Z,90.51
2023-09-21T05:40:08.965Z,90.63
2023-09-21T05:42:42.921Z,90.65
2023-09-21T05:45:15.800Z,90.29
2023-09-21T05:47:48.463Z,90.45
2023-09-21T05:50:24.320Z,90.40
2023-09-21T05:52:58.037Z,90.27
2023-09-21T05:55:30.869Z,90.30
2023-09-21T05:58:08.596Z,90.23
2023-09-21T06:00:42.426Z,89.84
2023-09-21T06:03:15.110Z,89.15
2023-09-21T06:05:48.024Z,88.80
2023-09-21T06:08:20.855Z,88.18
2023-09-21T06:10:53.566Z,87.24
2023-09-21T06:13:26.400Z,86.90
2023-09-21T06:15:59.089Z,86.87
2023-09-21T06:18:31.503Z,85.98
2023-09-21T06:21:05.964Z,84.70
2023-09-21T06:23:38.185Z,83.96
2023-09-21T06:26:10.731Z,83.18
2023-09-21T06:28:44.638Z,81.58
2023-09-21T06:31:17.935Z,80.20
2023-09-21T06:33:50.364Z,77.02
2023-09-21T06:36:23.117Z,73.73
2023-09-21T06:38:55.430Z,68.19
2023-09-21T06:41:27.806Z,64.68
2023-09-21T06:44:04.582Z,62.57
2023-09-21T06:46:37.491Z,63.29
2023-09-21T06:49:11.828Z,62.04
2023-09-21T06:51:44.231Z,63.47
2023-09-21T06:54:16.465Z,64.82
2023-09-21T06:56:49.738Z,65.48
2023-09-21T06:59:21.886Z,67.44
2023-09-21T07:01:54.764Z,68.13
2023-09-21T07:04:30.047Z,68.88
2023-09-21T07:07:09.638Z,69.75
2023-09-21T07:09:42.000Z,71.04
2023-09-21T07:12:16.336Z,71.36
2023-09-21T07:14:51.890Z,70.50
2023-09-21T07:17:25.569Z,69.76
2023-09-21T07:19:56.475Z,69.56
2023-09-21T07:22:31.035Z,67.62
2023-09-21T07:25:05.467Z,66.33
2023-09-21T07:27:41.157Z,66.39
2023-09-21T07:30:15.858Z,65.60
2023-09-21T07:32:48.250Z,64.95
2023-09-21T07:35:22.780Z,65.21
2023-09-21T07:37:55.381Z,65.32
2023-09-21T07:40:31.599Z,65.49
2023-09-21T07:43:04.766Z,64.77
2023-09-21T07:45:40.126Z,64.46
2023-09-21T07:48:12.601Z,65.16
2023-09-21T07:50:46.030Z,65.91
2023-09-21T07:53:18.553Z,66.92
2023-09-21T07:55:59.520Z,66.25
2023-09-21T07:58:32.052Z,65.74
2023-09-21T08:01:05.479Z,62.53
2023-09-21T08:03:37.020Z,59.47
2023-09-21T08:06:09.687Z,56.48
2023-09-21T08:08:42.426Z,54.50
2023-09-21T08:11:17.560Z,52.40
2023-09-21T08:13:50.109Z,49.27
2023-09-21T08:16:22.408Z,45.44
2023-09-21T08:18:55.080Z,43.27
2023-09-21T08:21:27.402Z,39.63
2023-09-21T08:24:00.338Z,39.64
2023-09-21T08:26:39.655Z,39.92
2023-09-21T08:29:13.030Z,42.94
2023-09-21T08:31:47.375Z,44.13
2023-09-21T08:34:20.760Z,45.73
2023-09-21T08:36:56.410Z,48.65
2023-09-21T08:39:29.680Z,49.88
2023-09-21T08:42:01.528Z,53.49
2023-09-21T08:44:35.916Z,51.54
2023-09-21T08:47:27.742Z,52.27
2023-09-21T08:50:08.623Z,53.59
2023-09-21T08:52:42.137Z,53.33
2023-09-21T08:55:15.338Z,51.49
2023-09-21T08:57:46.837Z,48.41
2023-09-21T09:00:23.392Z,46.60
2023-09-21T09:02:57.263Z,44.05
2023-09-21T09:05:30.993Z,41.15
2023-09-21T09:08:05.032Z,38.48
2023-09-21T09:10:44.395Z,37.37
2023-09-21T09:13:18.344Z,36.50
2023-09-21T09:15:51.173Z,36.54
2023-09-21T09:18:23.854Z,35.11
2023-09-21T09:20:58.368Z,35.28
2023-09-21T09:23:32.239Z,35.46
2023-09-21T09:26:13.562Z,33.61
2023-09-21T09:28:45.784Z,33.86
2023-09-21T09:31:19.370Z,35.09
2023-09-21T09:33:52.061Z,34.01
2023-09-21T09:36:24.353Z,34.88
2023-09-21T09:38:57.157Z,35.65
2023-09-21T09:41:33.355Z,36.47
2023-09-21T09:44:10.809Z,37.48
2023-09-21T09:46:47.732Z,38.61
2023-09-21T09:49:23.392Z,39.44
2023-09-21T09:52:01.423Z,39.76
2023-09-21T09:54:35.950Z,40.54
2023-09-21T09:57:15.876Z,41.89
2023-09-21T09:59:49.404Z,42.95
2023-09-21T10:02:24.023Z,42.07
2023-09-21T10:04:57.015Z,43.22
2023-09-21T10:07:30.789Z,44.73
2023-09-21T10:10:05.260Z,44.76
2023-09-21T10:12:40.374Z,44.52
2023-09-21T10:15:15.717Z,44.95
2023-09-21T10:17:52.282Z,45.58
2023-09-21T10:20:29.241Z,45.36
2023-09-21T10:23:07.710Z,45.12
2023-09-21T10:25:48.373Z,45.36
2023-09-21T10:28:41.344Z,46.33
2023-09-21T10:31:30.583Z,47.07
2023-09-21T10:34:17.803Z,46.54
2023-09-21T10:36:56.452Z,45.86
2023-09-21T10:39:31.611Z,47.15
2023-09-21T10:42:38.746Z,47.17
2023-09-21T10:45:13.264Z,46.73
2023-09-21T10:47:51.023Z,46.87
2023-09-21T10:50:27.376Z,47.26
2023-09-21T10:53:02.169Z,45.87
2023-09-21T10:55:36.522Z,46.63
2023-09-21T10:58:16.167Z,46.06
2023-09-21T11:00:49.845Z,46.43
2023-09-21T11:03:23.224Z,46.20
2023-09-21T11:05:55.699Z,45.89
2023-09-21T11:08:31.082Z,46.91
2023-09-21T11:11:04.897Z,47.83
2023-09-21T11:13:37.135Z,47.78
2023-09-21T11:16:15.343Z,46.93
2023-09-21T11:18:49.716Z,46.92
2023-09-21T11:21:23.735Z,47.17
2023-09-21T11:23:56.994Z,47.39
2023-09-21T11:26:30.446Z,47.49
2023-09-21T11:29:04.244Z,46.96
2023-09-21T11:31:36.921Z,47.17
2023-09-21T11:34:17.516Z,47.10
2023-09-21T11:36:53.859Z,47.07
2023-09-21T11:39:30.532Z,46.96
2023-09-21T11:42:02.929Z,46.64
2023-09-21T11:44:36.533Z,46.34
2023-09-21T11:47:11.079Z,47.30
2023-09-21T11:49:45.892Z,46.40
2023-09-21T11:52:18.378Z,45.61
2023-09-21T11:54:50.996Z,45.88
2023-09-21T11:57:23.608Z,47.40
2023-09-21T11:59:57.797Z,48.01
2023-09-21T12:02:38.939Z,46.48
2023-09-21T12:05:13.029Z,44.79
2023-09-21T12:07:45.503Z,45.28
2023-09-21T12:10:19.162Z,45.59
2023-09-21T12:12:52.013Z,45.27
2023-09-21T12:15:24.221Z,45.87
2023-09-21T12:17:56.714Z,46.02
2023-09-21T12:20:37.370Z,46.07
2023-09-21T12:23:10.436Z,46.23
2023-09-21T12:25:41.228Z,46.92
2023-09-21T12:28:14.052Z,46.31
2023-09-21T12:30:49.672Z,46.17
2023-09-21T12:36:00.198Z,47.45
2023-09-21T12:38:34.664Z,46.92
2023-09-21T12:41:07.640Z,46.89
2023-09-21T12:43:40.706Z,47.18
2023-09-21T12:46:12.932Z,46.21
2023-09-21T12:48:45.652Z,46.43
2023-09-21T12:51:18.467Z,46.58
2023-09-21T12:53:51.165Z,46.27
2023-09-21T12:56:24.184Z,46.31
2023-09-21T12:58:57.314Z,46.16
2023-09-21T13:01:32.188Z,45.85
2023-09-21T13:04:05.658Z,46.33
2023-09-21T13:06:43.558Z,45.55
2023-09-21T13:09:16.611Z,45.35
2023-09-21T13:11:48.832Z,45.01
2023-09-21T13:14:21.396Z,45.21
2023-09-21T13:16:53.845Z,45.73
2023-09-21T13:19:26.166Z,45.98
2023-09-21T13:21:58.496Z,46.64
2023-09-21T13:24:32.276Z,46.73
2023-09-21T13:27:05.488Z,46.66
2023-09-21T13:29:39.181Z,46.68
2023-09-21T13:32:11.980Z,47.35
2023-09-21T13:34:45.601Z,46.94
2023-09-21T13:37:18.111Z,46.22
2023-09-21T13:39:51.227Z,45.93
2023-09-21T13:42:25.640Z,46.16
2023-09-21T13:44:59.562Z,46.49
2023-09-21T13:47:32.098Z,46.75
2023-09-21T13:50:04.526Z,47.05
2023-09-21T13:52:38.246Z,46.87
2023-09-21T13:55:18.618Z,46.68
2023-09-21T13:57:53.461Z,47.01
2023-09-21T14:00:30.860Z,47.00
2023-09-21T14:03:03.790Z,47.48
2023-09-21T14:05:40.706Z,47.65
2023-09-21T14:08:13.299Z,47.98
2023-09-21T14:10:46.974Z,47.89
2023-09-21T14:13:19.274Z,47.66
2023-09-21T14:15:53.532Z,47.10
2023-09-21T14:18:25.889Z,47.20
2023-09-21T14:20:58.494Z,47.34
2023-09-21T14:23:32.269Z,47.50
2023-09-21T14:26:04.641Z,48.06
2023-09-21T14:28:37.250Z,47.28
2023-09-21T14:31:09.841Z,47.23
2023-09-21T14:33:42.504Z,47.06
2023-09-21T14:36:14.977Z,47.51
2023-09-21T14:38:47.985Z,47.41
2023-09-21T14:41:20.696Z,47.54
2023-09-21T14:43:53.586Z,47.66
2023-09-21T14:46:28.075Z,48.06
2023-09-21T14:49:00.499Z,47.69
2023-09-21T14:51:33.839Z,47.30
2023-09-21T14:54:08.278Z,47.95
2023-09-21T14:56:49.765Z,47.96
2023-09-21T14:59:23.462Z,48.23
2023-09-21T15:01:58.443Z,48.74
2023-09-21T15:04:34.182Z,49.16
2023-09-21T15:07:10.471Z,49.70
2023-09-21T15:09:44.559Z,50.18
2023-09-21T15:12:19.771Z,50.27
2023-09-21T15:14:52.198Z,50.27
2023-09-21T15:17:26.946Z,50.33
2023-09-21T15:19:59.376Z,50.52
2023-09-21T15:22:33.484Z,50.38
2023-09-21T15:25:06.145Z,50.61
2023-09-21T15:27:49.716Z,50.73
2023-09-21T15:30:20.667Z,50.29
2023-09-21T15:32:53.129Z,50.75
2023-09-21T15:35:25.980Z,51.15
2023-09-21T15:37:58.605Z,51.35
2023-09-21T15:40:31.937Z,51.67
2023-09-21T15:43:15.216Z,51.62
2023-09-21T15:45:48.132Z,51.92
2023-09-21T15:48:20.907Z,52.18
2023-09-21T15:50:57.171Z,52.08
2023-09-21T15:53:33.217Z,52.68
2023-09-21T15:56:05.952Z,52.83
2023-09-21T15:58:38.805Z,52.44
2023-09-21T16:01:13.131Z,52.64
2023-09-21T16:03:45.804Z,53.00
2023-09-21T16:06:18.670Z,52.77
2023-09-21T16:08:51.134Z,53.21
2023-09-21T16:11:23.838Z,53.40
2023-09-21T16:13:56.282Z,53.73
2023-09-21T16:16:30.838Z,53.56
2023-09-21T16:19:03.809Z,54.10
2023-09-21T16:21:39.612Z,54.25
2023-09-21T16:24:12.911Z,54.78
2023-09-21T16:26:45.394Z,54.92
2023-09-21T16:29:18.020Z,55.26
2023-09-21T16:31:53.037Z,55.78
2023-09-21T16:34:25.618Z,55.85
2023-09-21T16:36:58.185Z,56.55
2023-09-21T16:39:31.061Z,56.50
2023-09-21T16:42:03.866Z,56.88
2023-09-21T16:44:38.238Z,57.07
2023-09-21T16:47:11.669Z,57.43
2023-09-21T16:49:44.074Z,57.62
2023-09-21T16:52:19.569Z,57.78
2023-09-21T16:54:52.093Z,57.98
2023-09-21T16:57:24.518Z,58.82
2023-09-21T16:59:59.475Z,58.87
2023-09-21T17:02:36.024Z,59.29
2023-09-21T17:05:10.641Z,59.43
2023-09-21T17:07:43.464Z,59.72
2023-09-21T17:10:16.020Z,59.97
2023-09-21T17:12:51.455Z,60.29
2023-09-21T17:15:24.228Z,60.48
2023-09-21T17:17:56.812Z,60.83
2023-09-21T17:20:31.187Z,61.11
2023-09-21T17:23:03.605Z,61.23
2023-09-21T17:25:36.637Z,61.46
2023-09-21T17:28:11.583Z,61.54
2023-09-21T17:30:44.725Z,61.95
2023-09-21T17:33:17.218Z,61.84
2023-09-21T17:35:50.442Z,62.22
2023-09-21T17:38:23.420Z,62.40
2023-09-21T17:40:56.600Z,62.69
2023-09-21T17:43:31.468Z,63.14
2023-09-21T17:46:05.150Z,63.60
2023-09-21T17:48:38.586Z,63.42
2023-09-21T17:51:13.181Z,64.05
2023-09-21T17:53:45.776Z,64.19
2023-09-21T17:56:18.426Z,64.63
2023-09-21T17:58:50.893Z,64.62
2023-09-21T18:01:26.850Z,65.25
2023-09-21T18:04:02.442Z,65.40
2023-09-21T18:06:36.007Z,65.25
2023-09-21T18:09:11.090Z,65.74
2023-09-21T18:11:46.602Z,65.93
2023-09-21T18:14:18.873Z,65.98
2023-09-21T18:16:51.217Z,66.07
2023-09-21T18:19:23.464Z,66.42
2023-09-21T18:21:55.883Z,66.64
2023-09-21T18:24:30.186Z,66.74
2023-09-21T18:27:02.894Z,66.85
2023-09-21T18:29:35.453Z,66.92
2023-09-21T18:32:11.452Z,67.25
2023-09-21T18:34:44.172Z,67.66
2023-09-21T18:37:25.661Z,67.53
2023-09-21T18:39:58.724Z,67.92
2023-09-21T18:42:32.599Z,67.76
2023-09-21T18:45:03.381Z,66.45
2023-09-21T18:47:35.955Z,68.26
2023-09-21T18:50:11.069Z,68.63
2023-09-21T18:52:43.887Z,68.99
2023-09-21T18:55:17.007Z,68.82
2023-09-21T18:57:51.284Z,69.11
2023-09-21T19:00:24.510Z,69.62
2023-09-21T19:02:57.221Z,69.78
2023-09-21T19:05:32.183Z,69.98
2023-09-21T19:08:05.047Z,70.28
2023-09-21T19:10:37.749Z,70.37
2023-09-21T19:13:11.250Z,70.60
2023-09-21T19:15:44.173Z,70.80
2023-09-21T19:18:16.740Z,71.02
2023-09-21T19:20:51.053Z,71.06
2023-09-21T19:23:24.497Z,71.35
2023-09-21T19:25:59.417Z,71.38
2023-09-21T19:28:32.483Z,71.75
2023-09-21T19:31:07.842Z,71.88
2023-09-21T19:33:43.386Z,72.02
2023-09-21T19:36:17.348Z,72.27
2023-09-21T19:38:49.116Z,70.01
2023-09-21T19:41:21.704Z,72.28
2023-09-21T19:43:54.934Z,72.00
2023-09-21T19:46:28.089Z,72.43
2023-09-21T19:49:01.895Z,72.85
2023-09-21T19:51:35.142Z,72.65
2023-09-21T19:54:09.150Z,73.01
2023-09-21T19:56:44.307Z,73.33
2023-09-21T19:59:18.164Z,73.68
2023-09-21T20:01:50.634Z,73.84
2023-09-21T20:04:23.540Z,73.76
2023-09-21T20:06:57.306Z,74.34
2023-09-21T20:09:32.105Z,74.23
2023-09-21T20:12:10.638Z,74.38
2023-09-21T20:14:44.392Z,74.65
2023-09-21T20:17:17.321Z,74.67
2023-09-21T20:19:49.855Z,74.75
2023-09-21T20:22:22.420Z,74.90
2023-09-21T20:24:56.236Z,75.04
2023-09-21T20:27:27.111Z,72.57
2023-09-21T20:30:00.568Z,74.93
2023-09-21T20:32:35.871Z,74.50
2023-09-21T20:35:09.748Z,74.87
2023-09-21T20:37:42.167Z,75.12
2023-09-21T20:40:16.610Z,75.20
2023-09-21T20:42:49.196Z,75.10
2023-09-21T20:45:22.087Z,75.41
2023-09-21T20:47:54.631Z,75.61
2023-09-21T20:50:30.359Z,74.92
2023-09-21T20:53:05.611Z,75.10
2023-09-21T20:55:40.288Z,75.28
2023-09-21T20:58:15.192Z,75.19
2023-09-21T21:00:47.909Z,75.34
2023-09-21T21:03:20.736Z,75.37
2023-09-21T21:05:53.543Z,75.32
2023-09-21T21:08:30.208Z,75.27
2023-09-21T21:11:08.231Z,75.11
2023-09-21T21:13:40.792Z,75.21
2023-09-21T21:16:14.442Z,74.97
2023-09-21T21:18:47.435Z,75.10
2023-09-21T21:21:20.092Z,75.19
2023-09-21T21:23:52.517Z,75.19
2023-09-21T21:26:33.617Z,75.20
2023-09-21T21:29:06.016Z,75.06
2023-09-21T21:31:46.716Z,75.30
2023-09-21T21:34:19.550Z,75.17
2023-09-21T21:36:52.039Z,75.23
2023-09-21T21:39:37.942Z,75.25
2023-09-21T21:42:13.565Z,75.11
2023-09-21T21:44:45.858Z,75.15
2023-09-21T21:47:18.385Z,75.14
2023-09-21T21:49:50.901Z,75.13
2023-09-21T21:52:23.388Z,75.08
2023-09-21T21:54:57.332Z,75.02
2023-09-21T21:57:30.711Z,74.05
2023-09-21T22:00:06.494Z,74.85
2023-09-21T22:02:48.267Z,74.52
2023-09-21T22:05:29.616Z,74.21
2023-09-21T22:08:06.849Z,74.46
2023-09-21T22:10:39.425Z,74.40
2023-09-21T22:13:12.872Z,74.47
2023-09-21T22:15:45.554Z,74.38
2023-09-21T22:18:20.830Z,74.63
2023-09-21T22:20:53.156Z,74.42
2023-09-21T22:23:25.876Z,74.48
2023-09-21T22:25:58.265Z,74.39
2023-09-21T22:28:32.080Z,74.50
2023-09-21T22:31:11.687Z,74.47
2023-09-21T22:33:44.532Z,74.24
2023-09-21T22:36:17.506Z,74.18
2023-09-21T22:38:52.492Z,74.22
2023-09-21T22:41:25.239Z,74.66
2023-09-21T22:43:58.610Z,74.38
2023-09-21T22:46:32.755Z,74.56
2023-09-21T22:49:08.118Z,74.39
2023-09-21T22:51:40.652Z,74.31
2023-09-21T22:54:15.324Z,74.57
2023-09-21T22:56:51.424Z,74.57
2023-09-21T22:59:26.543Z,74.50
2023-09-21T23:01:59.449Z,74.60
2023-09-21T23:04:34.196Z,74.66
2023-09-21T23:07:14.151Z,74.56
2023-09-21T23:09:47.001Z,74.75
2023-09-21T23:12:21.779Z,74.75
2023-09-21T23:14:54.199Z,74.72
2023-09-21T23:17:31.196Z,74.74
2023-09-21T23:20:16.991Z,74.41
2023-09-21T23:22:51.018Z,74.93
2023-09-21T23:25:23.940Z,74.97
2023-09-21T23:27:58.001Z,74.86
2023-09-21T23:30:31.548Z,75.12
2023-09-21T23:33:09.470Z,75.00
2023-09-21T23:35:44.097Z,74.92
2023-09-21T23:38:16.947Z,75.02
2023-09-21T23:40:50.330Z,74.94
2023-09-21T23:43:22.608Z,75.11
2023-09-21T23:45:55.430Z,75.38
2023-09-21T23:48:31.732Z,75.40
2023-09-21T23:51:05.854Z,75.29
2023-09-21T23:53:38.928Z,75.20
2023-09-21T23:56:12.371Z,75.08
2023-09-21T23:58:48.030Z,75.51
